Time;durP1;ratioP1;P1;durP2;ratioP2;P2;SDS_P1;SDS_P2;PMS_P1;PMS_P2;Temp;Humidity;BMP_temperature;BMP_pressure;BME280_temperature;BME280_humidity;BME280_pressure;Samples;Min_cycle;Max_cycle;Signal;HPM_P1;HPM_P2
2024/04/06 00:01:20;;;;;;;0.40;0.40;;;;;;;;;;5048870;28;20237;-74
2024/04/06 00:03:45;;;;;;;0.30;0.30;;;;;;;;;;5063683;28;20223;-73
2024/04/06 00:06:11;;;;;;;0.30;0.30;;;;;;;;;;5046535;28;20796;-74
2024/04/06 00:08:36;;;;;;;0.40;0.40;;;;;;;;;;5045695;28;20223;-75
2024/04/06 00:11:02;;;;;;;0.30;0.30;;;;;;;;;;5061629;28;20234;-74
2024/04/06 00:13:27;;;;;;;0.30;0.30;;;;;;;;;;5064257;28;20280;-74
2024/04/06 00:15:52;;;;;;;0.40;0.40;;;;;;;;;;5053774;28;20265;-74
2024/04/06 00:18:18;;;;;;;0.30;0.30;;;;;;;;;;5045770;28;20214;-75
2024/04/06 00:20:43;;;;;;;0.30;0.30;;;;;;;;;;5055097;28;20248;-76
2024/04/06 00:23:09;;;;;;;0.30;0.30;;;;;;;;;;5061592;28;20227;-73
2024/04/06 00:25:35;;;;;;;0.30;0.30;;;;;;;;;;5053216;28;20242;-74
2024/04/06 00:28:00;;;;;;;0.40;0.40;;;;;;;;;;5047187;28;20246;-74
2024/04/06 00:30:26;;;;;;;0.40;0.40;;;;;;;;;;5049407;28;20226;-76
2024/04/06 00:32:51;;;;;;;0.40;0.40;;;;;;;;;;5063970;28;20230;-75
2024/04/06 00:35:18;;;;;;;0.30;0.30;;;;;;;;;;5082180;28;20237;-75
2024/04/06 00:37:44;;;;;;;0.30;0.30;;;;;;;;;;5060336;28;20685;-74
2024/04/06 00:40:10;;;;;;;0.30;0.30;;;;;;;;;;5048635;28;20219;-74
2024/04/06 00:42:35;;;;;;;0.30;0.30;;;;;;;;;;5063408;28;20268;-75
2024/04/06 00:45:02;;;;;;;0.30;0.30;;;;;;;;;;5049462;28;20238;-73
2024/04/06 00:47:28;;;;;;;1.73;0.83;;;;;;;;;;5069760;28;20292;-75
2024/04/06 00:49:54;;;;;;;0.30;0.30;;;;;;;;;;5046080;28;22312;-73
2024/04/06 00:52:19;;;;;;;0.30;0.30;;;;;;;;;;5064944;28;20226;-73
2024/04/06 00:54:45;;;;;;;0.30;0.30;;;;;;;;;;5049495;28;20231;-74
2024/04/06 00:57:12;;;;;;;0.30;0.30;;;;;;;;;;5052171;28;20614;-75
2024/04/06 00:59:38;;;;;;;0.30;0.30;;;;;;;;;;5062129;28;20223;-74
2024/04/06 01:02:05;;;;;;;0.30;0.30;;;;;;;;;;5042773;28;20230;-73
2024/04/06 01:04:31;;;;;;;0.30;0.30;;;;;;;;;;5063363;28;20218;-75
2024/04/06 01:06:56;;;;;;;0.30;0.30;;;;;;;;;;5064387;28;20811;-75
2024/04/06 01:09:23;;;;;;;0.30;0.30;;;;;;;;;;5068665;28;20254;-74
2024/04/06 01:11:49;;;;;;;0.30;0.30;;;;;;;;;;5068555;28;20658;-74
2024/04/06 01:14:15;;;;;;;0.40;0.40;;;;;;;;;;5067283;28;20261;-73
2024/04/06 01:16:43;;;;;;;0.40;0.40;;;;;;;;;;5047522;28;20230;-74
2024/04/06 01:19:09;;;;;;;0.40;0.40;;;;;;;;;;5067688;28;20218;-73
2024/04/06 01:21:35;;;;;;;0.30;0.30;;;;;;;;;;5067986;28;20226;-74
2024/04/06 01:24:23;;;;;;;0.30;0.30;;;;;;;;;;5067642;28;20276;-73
2024/04/06 01:26:49;;;;;;;0.30;0.30;;;;;;;;;;5049563;28;20226;-75
2024/04/06 01:29:16;;;;;;;0.30;0.30;;;;;;;;;;5063201;28;21027;-75
2024/04/06 01:31:41;;;;;;;0.60;0.60;;;;;;;;;;5063928;28;20226;-74
2024/04/06 01:34:10;;;;;;;0.60;0.60;;;;;;;;;;5064251;28;20280;-73
2024/04/06 01:36:40;;;;;;;0.43;0.43;;;;;;;;;;5066357;28;20211;-75
2024/04/06 01:39:07;;;;;;;0.30;0.30;;;;;;;;;;5042521;28;20226;-75
2024/04/06 01:41:37;;;;;;;0.30;0.30;;;;;;;;;;5066358;28;20684;-75
2024/04/06 01:44:03;;;;;;;0.30;0.30;;;;;;;;;;5060487;28;20222;-74
2024/04/06 01:46:28;;;;;;;0.30;0.30;;;;;;;;;;5066648;28;20233;-74
2024/04/06 01:48:54;;;;;;;0.20;0.20;;;;;;;;;;5085969;28;20243;-72
2024/04/06 01:51:21;;;;;;;0.30;0.30;;;;;;;;;;5087818;28;20222;-73
2024/04/06 01:53:46;;;;;;;2.10;1.07;;;;;;;;;;5085529;28;20249;-73
2024/04/06 01:56:12;;;;;;;0.30;0.30;;;;;;;;;;5065983;28;20792;-75
2024/04/06 01:58:37;;;;;;;0.30;0.30;;;;;;;;;;5066737;28;20692;-75
2024/04/06 02:01:03;;;;;;;0.30;0.30;;;;;;;;;;5047459;28;20247;-74
2024/04/06 02:03:29;;;;;;;0.40;0.40;;;;;;;;;;5045595;28;20222;-73
2024/04/06 02:05:56;;;;;;;0.30;0.30;;;;;;;;;;5055234;28;20217;-73
2024/04/06 02:08:26;;;;;;;0.30;0.30;;;;;;;;;;5057700;28;20222;-74
2024/04/06 02:10:51;;;;;;;0.30;0.30;;;;;;;;;;5044309;28;20603;-74
2024/04/06 02:13:17;;;;;;;0.30;0.30;;;;;;;;;;5060650;28;20277;-74
2024/04/06 02:15:44;;;;;;;0.30;0.30;;;;;;;;;;5066920;28;20247;-74
2024/04/06 02:18:10;;;;;;;0.30;0.30;;;;;;;;;;5061343;28;20276;-75
2024/04/06 02:20:37;;;;;;;0.30;0.30;;;;;;;;;;5050141;28;20238;-75
2024/04/06 02:23:03;;;;;;;0.30;0.30;;;;;;;;;;5057374;28;20227;-74
2024/04/06 02:25:29;;;;;;;0.30;0.30;;;;;;;;;;5043803;28;20223;-73
2024/04/06 02:27:55;;;;;;;0.60;0.60;;;;;;;;;;5056455;28;20397;-75
2024/04/06 02:30:21;;;;;;;0.30;0.30;;;;;;;;;;5043421;28;20222;-73
2024/04/06 02:32:48;;;;;;;0.30;0.30;;;;;;;;;;5065576;28;20234;-74
2024/04/06 02:35:14;;;;;;;0.40;0.40;;;;;;;;;;5061801;28;20238;-74
2024/04/06 02:37:41;;;;;;;0.30;0.30;;;;;;;;;;5069004;28;21016;-74
2024/04/06 02:40:08;;;;;;;0.30;0.30;;;;;;;;;;5046922;28;20226;-75
2024/04/06 02:42:34;;;;;;;0.30;0.30;;;;;;;;;;5052819;28;20260;-73
2024/04/06 02:44:59;;;;;;;0.30;0.30;;;;;;;;;;5060015;28;20235;-73
2024/04/06 02:47:25;;;;;;;0.30;0.30;;;;;;;;;;5047259;28;20920;-74
2024/04/06 02:49:50;;;;;;;0.30;0.30;;;;;;;;;;5065831;28;20215;-73
2024/04/06 02:52:16;;;;;;;0.30;0.30;;;;;;;;;;5064410;28;20230;-73
2024/04/06 02:55:06;;;;;;;0.30;0.30;;;;;;;;;;5068384;28;20311;-74
2024/04/06 02:57:32;;;;;;;0.30;0.30;;;;;;;;;;5064942;28;20219;-73
2024/04/06 02:59:58;;;;;;;0.30;0.30;;;;;;;;;;5059827;28;20227;-74
2024/04/06 03:02:24;;;;;;;0.30;0.30;;;;;;;;;;5065736;28;20223;-74
2024/04/06 03:04:51;;;;;;;0.23;0.23;;;;;;;;;;5059388;28;20757;-73
2024/04/06 03:07:17;;;;;;;0.30;0.30;;;;;;;;;;5047127;28;20234;-73
2024/04/06 03:09:51;;;;;;;0.30;0.30;;;;;;;;;;5082462;28;20648;-75
2024/04/06 03:12:16;;;;;;;0.30;0.30;;;;;;;;;;5064122;28;20355;-75
2024/04/06 03:14:42;;;;;;;0.30;0.30;;;;;;;;;;5064185;28;20703;-73
2024/04/06 03:17:07;;;;;;;0.30;0.30;;;;;;;;;;5051270;28;20650;-73
2024/04/06 03:19:33;;;;;;;0.30;0.30;;;;;;;;;;5065620;28;20337;-74
2024/04/06 03:21:59;;;;;;;0.30;0.30;;;;;;;;;;5059258;28;20245;-75
2024/04/06 03:24:24;;;;;;;0.30;0.30;;;;;;;;;;5044758;28;20766;-73
2024/04/06 03:26:51;;;;;;;0.30;0.30;;;;;;;;;;5043536;28;20231;-73
2024/04/06 03:29:16;;;;;;;0.30;0.30;;;;;;;;;;5048632;28;20216;-74
2024/04/06 03:31:42;;;;;;;0.30;0.30;;;;;;;;;;5047308;28;20239;-73
2024/04/06 03:34:11;;;;;;;0.30;0.30;;;;;;;;;;5059991;28;20269;-73
2024/04/06 03:36:37;;;;;;;0.67;0.47;;;;;;;;;;5050800;28;20218;-75
2024/04/06 03:39:03;;;;;;;0.30;0.30;;;;;;;;;;5045110;28;20238;-73
2024/04/06 03:41:28;;;;;;;0.30;0.30;;;;;;;;;;5071300;28;20737;-73
2024/04/06 03:43:54;;;;;;;0.30;0.30;;;;;;;;;;5062257;28;20269;-73
2024/04/06 03:46:19;;;;;;;0.30;0.30;;;;;;;;;;5063526;28;20269;-73
2024/04/06 03:48:45;;;;;;;0.30;0.30;;;;;;;;;;5057606;28;20720;-75
2024/04/06 03:51:10;;;;;;;0.30;0.30;;;;;;;;;;5051024;28;20227;-73
2024/04/06 03:53:43;;;;;;;0.30;0.30;;;;;;;;;;5065937;28;20598;-74
2024/04/06 03:56:12;;;;;;;0.30;0.30;;;;;;;;;;5049732;28;20226;-73
2024/04/06 03:58:38;;;;;;;0.30;0.30;;;;;;;;;;5066434;28;20217;-74
2024/04/06 04:01:04;;;;;;;0.30;0.30;;;;;;;;;;5057568;28;20226;-73
2024/04/06 04:03:30;;;;;;;0.30;0.30;;;;;;;;;;5061052;28;20249;-75
2024/04/06 04:05:55;;;;;;;0.30;0.30;;;;;;;;;;5052261;28;20217;-74
2024/04/06 04:08:21;;;;;;;0.30;0.30;;;;;;;;;;5056060;28;20737;-74
2024/04/06 04:10:47;;;;;;;0.30;0.30;;;;;;;;;;5046203;28;20314;-75
2024/04/06 04:13:13;;;;;;;2.40;2.30;;;;;;;;;;5047774;28;20233;-74
2024/04/06 04:15:41;;;;;;;0.30;0.30;;;;;;;;;;5050764;28;20707;-74
2024/04/06 04:18:07;;;;;;;0.30;0.30;;;;;;;;;;5046027;28;20241;-74
2024/04/06 04:20:33;;;;;;;0.30;0.30;;;;;;;;;;5042945;28;20600;-74
2024/04/06 04:23:00;;;;;;;0.53;0.53;;;;;;;;;;5062793;28;20223;-74
2024/04/06 04:25:27;;;;;;;0.30;0.30;;;;;;;;;;5065441;28;20786;-74
2024/04/06 04:27:54;;;;;;;0.30;0.30;;;;;;;;;;5049897;28;20714;-74
2024/04/06 04:30:20;;;;;;;0.30;0.30;;;;;;;;;;5064567;28;20223;-75
2024/04/06 04:32:46;;;;;;;0.30;0.30;;;;;;;;;;5041595;28;20237;-74
2024/04/06 04:35:11;;;;;;;0.40;0.40;;;;;;;;;;5061472;28;20226;-73
2024/04/06 04:37:38;;;;;;;0.30;0.30;;;;;;;;;;5058309;28;20742;-73
2024/04/06 04:40:04;;;;;;;0.30;0.30;;;;;;;;;;5058246;28;20219;-75
2024/04/06 04:42:30;;;;;;;0.30;0.30;;;;;;;;;;5058915;28;20230;-75
2024/04/06 04:45:01;;;;;;;0.30;0.30;;;;;;;;;;5068265;28;20697;-74
2024/04/06 04:47:26;;;;;;;0.30;0.30;;;;;;;;;;5047241;28;20233;-74
2024/04/06 04:49:52;;;;;;;0.30;0.30;;;;;;;;;;5062122;28;20223;-74
2024/04/06 04:52:18;;;;;;;0.30;0.30;;;;;;;;;;5038254;28;20227;-73
2024/04/06 04:54:44;;;;;;;0.30;0.30;;;;;;;;;;5045388;28;20214;-73
2024/04/06 04:57:09;;;;;;;0.30;0.30;;;;;;;;;;5063876;28;20276;-73
2024/04/06 04:59:35;;;;;;;0.30;0.30;;;;;;;;;;5062078;28;20219;-73
2024/04/06 05:02:00;;;;;;;0.30;0.30;;;;;;;;;;5070558;28;20225;-73
2024/04/06 05:04:26;;;;;;;0.30;0.30;;;;;;;;;;5068723;28;20688;-75
2024/04/06 05:06:52;;;;;;;0.30;0.30;;;;;;;;;;5068448;28;20219;-73
2024/04/06 05:09:17;;;;;;;0.30;0.30;;;;;;;;;;5044872;28;20222;-72
2024/04/06 05:11:43;;;;;;;0.30;0.30;;;;;;;;;;5051212;28;20227;-73
2024/04/06 05:14:09;;;;;;;0.30;0.30;;;;;;;;;;5054474;28;20245;-73
2024/04/06 05:16:35;;;;;;;0.30;0.30;;;;;;;;;;5061983;28;20222;-74
2024/04/06 05:19:02;;;;;;;0.30;0.30;;;;;;;;;;5068589;28;20214;-73
2024/04/06 05:21:28;;;;;;;0.30;0.30;;;;;;;;;;5057003;28;20650;-72
2024/04/06 05:23:53;;;;;;;0.30;0.30;;;;;;;;;;5039532;28;20261;-73
2024/04/06 05:26:19;;;;;;;0.30;0.30;;;;;;;;;;5060186;28;20223;-72
2024/04/06 05:28:44;;;;;;;0.30;0.30;;;;;;;;;;5042676;28;20218;-74
2024/04/06 05:31:10;;;;;;;0.40;0.40;;;;;;;;;;5060605;28;20715;-73
2024/04/06 05:33:35;;;;;;;0.30;0.30;;;;;;;;;;5059812;28;20219;-74
2024/04/06 05:36:04;;;;;;;0.30;0.30;;;;;;;;;;5059018;28;20219;-72
2024/04/06 05:38:30;;;;;;;0.30;0.30;;;;;;;;;;5060899;28;20231;-73
2024/04/06 05:40:55;;;;;;;0.30;0.30;;;;;;;;;;5058564;28;20223;-74
2024/04/06 05:43:21;;;;;;;0.40;0.40;;;;;;;;;;5066669;28;20222;-72
2024/04/06 05:45:46;;;;;;;0.30;0.30;;;;;;;;;;5060720;28;20341;-73
2024/04/06 05:48:11;;;;;;;0.30;0.30;;;;;;;;;;5058439;28;20735;-73
2024/04/06 05:50:40;;;;;;;0.30;0.30;;;;;;;;;;5042256;28;20641;-73
2024/04/06 05:53:05;;;;;;;3.60;1.73;;;;;;;;;;5043859;28;20236;-74
2024/04/06 05:55:31;;;;;;;0.30;0.30;;;;;;;;;;5061612;28;20214;-74
2024/04/06 05:57:57;;;;;;;0.30;0.30;;;;;;;;;;5044391;28;20450;-74
2024/04/06 06:00:26;;;;;;;0.30;0.30;;;;;;;;;;5041954;28;20663;-74
2024/04/06 06:02:53;;;;;;;0.30;0.30;;;;;;;;;;5059700;28;20222;-73
2024/04/06 06:05:19;;;;;;;0.30;0.30;;;;;;;;;;5044632;28;20219;-73
2024/04/06 06:07:45;;;;;;;0.30;0.30;;;;;;;;;;5059057;28;20258;-73
2024/04/06 06:10:10;;;;;;;0.60;0.60;;;;;;;;;;5056059;28;20310;-73
2024/04/06 06:12:36;;;;;;;0.30;0.30;;;;;;;;;;5049976;28;20223;-73
2024/04/06 06:15:02;;;;;;;0.40;0.40;;;;;;;;;;5058496;28;20290;-73
2024/04/06 06:17:27;;;;;;;0.30;0.30;;;;;;;;;;5058920;28;20223;-73
2024/04/06 06:19:53;;;;;;;0.30;0.30;;;;;;;;;;5058924;28;20276;-73
2024/04/06 06:22:18;;;;;;;0.30;0.30;;;;;;;;;;5058132;28;20551;-72
2024/04/06 06:24:44;;;;;;;0.30;0.30;;;;;;;;;;5041665;28;20227;-74
2024/04/06 06:27:09;;;;;;;0.30;0.30;;;;;;;;;;5055903;28;20238;-72
2024/04/06 06:29:35;;;;;;;0.30;0.30;;;;;;;;;;5042896;28;20222;-73
2024/04/06 06:32:01;;;;;;;0.30;0.30;;;;;;;;;;5055391;28;20254;-73
2024/04/06 06:34:26;;;;;;;0.30;0.30;;;;;;;;;;5059298;28;20219;-74
2024/04/06 06:36:52;;;;;;;0.30;0.30;;;;;;;;;;5058508;28;20271;-72
2024/04/06 06:39:18;;;;;;;0.30;0.30;;;;;;;;;;5058181;28;20273;-72
2024/04/06 06:41:43;;;;;;;0.67;0.67;;;;;;;;;;5060568;28;20219;-73
2024/04/06 06:44:09;;;;;;;0.30;0.30;;;;;;;;;;5057400;28;20251;-72
2024/04/06 06:46:35;;;;;;;0.60;0.60;;;;;;;;;;5058684;28;20237;-73
2024/04/06 06:49:01;;;;;;;0.30;0.30;;;;;;;;;;5058747;28;20250;-73
2024/04/06 06:51:26;;;;;;;0.40;0.40;;;;;;;;;;5044189;28;20257;-73
2024/04/06 06:53:52;;;;;;;0.30;0.30;;;;;;;;;;5048905;28;20219;-75
2024/04/06 06:56:22;;;;;;;0.30;0.30;;;;;;;;;;5044116;28;20279;-74
2024/04/06 06:58:51;;;;;;;0.30;0.30;;;;;;;;;;5065570;28;20222;-74
2024/04/06 07:01:17;;;;;;;0.30;0.30;;;;;;;;;;5060602;28;20269;-73
2024/04/06 07:03:43;;;;;;;0.30;0.30;;;;;;;;;;5039415;28;20222;-74
2024/04/06 07:06:12;;;;;;;0.30;0.30;;;;;;;;;;5057368;28;20239;-75
2024/04/06 07:08:41;;;;;;;0.30;0.30;;;;;;;;;;5059063;28;20610;-75
2024/04/06 07:11:07;;;;;;;0.30;0.30;;;;;;;;;;5066940;28;20226;-74
2024/04/06 07:13:33;;;;;;;0.30;0.30;;;;;;;;;;5056188;28;20779;-75
2024/04/06 07:16:11;;;;;;;0.30;0.30;;;;;;;;;;5061426;28;20243;-76
2024/04/06 07:18:38;;;;;;;0.30;0.30;;;;;;;;;;5062471;28;20219;-80
2024/04/06 07:21:04;;;;;;;0.30;0.30;;;;;;;;;;5056364;28;20231;-77
2024/04/06 07:23:30;;;;;;;0.30;0.30;;;;;;;;;;5043768;28;20730;-77
2024/04/06 07:25:55;;;;;;;0.30;0.30;;;;;;;;;;5044119;28;20249;-77
2024/04/06 07:28:21;;;;;;;12.57;1.20;;;;;;;;;;5044386;28;20243;-79
2024/04/06 07:30:47;;;;;;;0.37;0.37;;;;;;;;;;5055363;28;20231;-78
2024/04/06 07:33:13;;;;;;;0.33;0.33;;;;;;;;;;5043562;28;20227;-76
2024/04/06 07:35:39;;;;;;;0.30;0.30;;;;;;;;;;5042642;28;20211;-77
2024/04/06 07:38:05;;;;;;;0.70;0.70;;;;;;;;;;5057820;28;20228;-77
2024/04/06 07:40:32;;;;;;;0.50;0.50;;;;;;;;;;5055270;28;20227;-77
2024/04/06 07:42:59;;;;;;;0.30;0.30;;;;;;;;;;5056831;28;20269;-77
2024/04/06 07:45:25;;;;;;;0.30;0.30;;;;;;;;;;5058928;28;20235;-77
2024/04/06 07:47:52;;;;;;;0.35;0.35;;;;;;;;;;5043062;28;20594;-77
2024/04/06 07:50:21;;;;;;;0.30;0.30;;;;;;;;;;5053893;28;20233;-77
2024/04/06 07:52:46;;;;;;;0.40;0.40;;;;;;;;;;5055632;28;20227;-79
2024/04/06 07:55:12;;;;;;;0.30;0.30;;;;;;;;;;5058826;28;20231;-77
2024/04/06 07:57:38;;;;;;;0.30;0.30;;;;;;;;;;5050377;28;20257;-77
2024/04/06 08:00:05;;;;;;;0.30;0.30;;;;;;;;;;5059610;28;20227;-78
2024/04/06 08:02:30;;;;;;;0.30;0.30;;;;;;;;;;5060352;28;20227;-79
2024/04/06 08:04:56;;;;;;;0.40;0.40;;;;;;;;;;5043636;28;20230;-77
2024/04/06 08:07:23;;;;;;;0.30;0.30;;;;;;;;;;5041962;28;20668;-77
2024/04/06 08:09:56;;;;;;;0.40;0.40;;;;;;;;;;5058666;28;20230;-79
2024/04/06 08:12:22;;;;;;;0.30;0.30;;;;;;;;;;5061344;28;20226;-78
2024/04/06 08:14:47;;;;;;;0.30;0.30;;;;;;;;;;5058367;28;20747;-77
2024/04/06 08:17:13;;;;;;;0.30;0.30;;;;;;;;;;5064970;28;20310;-77
2024/04/06 08:19:38;;;;;;;0.32;0.32;;;;;;;;;;5064214;28;20222;-77
2024/04/06 08:22:04;;;;;;;0.30;0.30;;;;;;;;;;5058875;28;20292;-77
2024/04/06 08:24:29;;;;;;;0.30;0.30;;;;;;;;;;5056468;28;20222;-77
2024/04/06 08:26:55;;;;;;;0.40;0.40;;;;;;;;;;5045015;28;20227;-74
2024/04/06 08:29:21;;;;;;;5.68;1.05;;;;;;;;;;5060761;28;20226;-75
2024/04/06 08:31:47;;;;;;;0.30;0.30;;;;;;;;;;5043397;28;20231;-74
2024/04/06 08:34:12;;;;;;;0.68;0.68;;;;;;;;;;5058493;28;20515;-75
2024/04/06 08:36:38;;;;;;;0.30;0.30;;;;;;;;;;5052904;28;20589;-74
2024/04/06 08:39:04;;;;;;;0.40;0.40;;;;;;;;;;5051800;28;20222;-74
2024/04/06 08:41:30;;;;;;;0.30;0.30;;;;;;;;;;5038658;28;21030;-74
2024/04/06 08:43:58;;;;;;;0.30;0.30;;;;;;;;;;5054534;28;20218;-75
2024/04/06 08:46:24;;;;;;;0.65;0.65;;;;;;;;;;5043433;28;20791;-76
2024/04/06 08:48:50;;;;;;;1.50;0.90;;;;;;;;;;5040886;28;20295;-74
2024/04/06 08:51:24;;;;;;;1.15;0.40;;;;;;;;;;5040357;28;20218;-76
2024/04/06 08:53:50;;;;;;;0.40;0.40;;;;;;;;;;5048484;28;20218;-75
2024/04/06 08:56:16;;;;;;;0.38;0.38;;;;;;;;;;5039930;28;20230;-74
2024/04/06 08:58:43;;;;;;;0.30;0.30;;;;;;;;;;5046689;28;20222;-74
2024/04/06 09:01:11;;;;;;;0.40;0.40;;;;;;;;;;5062258;28;20223;-75
2024/04/06 09:03:36;;;;;;;0.50;0.50;;;;;;;;;;5056969;28;20226;-76
2024/04/06 09:06:02;;;;;;;0.50;0.50;;;;;;;;;;5062109;28;20226;-76
2024/04/06 09:08:28;;;;;;;0.32;0.32;;;;;;;;;;5061246;28;20584;-76
2024/04/06 09:10:57;;;;;;;0.32;0.32;;;;;;;;;;5058454;28;20259;-74
2024/04/06 09:13:23;;;;;;;0.40;0.40;;;;;;;;;;5062032;28;20227;-75
2024/04/06 09:15:49;;;;;;;0.30;0.30;;;;;;;;;;5060389;28;20214;-75
2024/04/06 09:18:16;;;;;;;0.70;0.70;;;;;;;;;;5061665;28;20238;-75
2024/04/06 09:20:42;;;;;;;0.38;0.38;;;;;;;;;;5048268;28;20241;-75
2024/04/06 09:23:07;;;;;;;0.38;0.38;;;;;;;;;;5060568;28;20227;-75
2024/04/06 09:25:33;;;;;;;0.40;0.40;;;;;;;;;;5061484;28;20243;-76
2024/04/06 09:27:59;;;;;;;0.52;0.52;;;;;;;;;;5058068;28;20215;-75
2024/04/06 09:30:33;;;;;;;0.55;0.55;;;;;;;;;;5059683;28;20273;-75
2024/04/06 09:33:00;;;;;;;0.60;0.60;;;;;;;;;;5047648;28;20227;-75
2024/04/06 09:35:26;;;;;;;0.30;0.30;;;;;;;;;;5050805;28;20230;-76
2024/04/06 09:37:53;;;;;;;0.60;0.60;;;;;;;;;;5058739;28;21167;-74
2024/04/06 09:40:19;;;;;;;1.05;0.82;;;;;;;;;;5046380;28;20688;-74
2024/04/06 09:42:44;;;;;;;0.43;0.43;;;;;;;;;;5058498;28;20223;-76
2024/04/06 09:45:11;;;;;;;0.40;0.40;;;;;;;;;;5042649;28;20228;-76
2024/04/06 09:47:38;;;;;;;0.88;0.88;;;;;;;;;;5051620;28;20225;-75
2024/04/06 09:50:04;;;;;;;1.67;1.00;;;;;;;;;;5044084;28;20734;-75
2024/04/06 09:52:29;;;;;;;0.40;0.40;;;;;;;;;;5057541;28;20226;-75
2024/04/06 09:54:55;;;;;;;0.35;0.35;;;;;;;;;;5058686;28;20226;-74
2024/04/06 09:57:22;;;;;;;1.15;1.05;;;;;;;;;;5048031;28;20235;-75
2024/04/06 09:59:48;;;;;;;0.45;0.45;;;;;;;;;;5048729;28;20215;-74
2024/04/06 10:02:22;;;;;;;0.40;0.40;;;;;;;;;;5059091;28;20231;-75
2024/04/06 10:04:54;;;;;;;0.35;0.35;;;;;;;;;;5055797;28;20226;-75
2024/04/06 10:07:30;;;;;;;0.68;0.50;;;;;;;;;;5049412;28;20618;-75
2024/04/06 10:10:00;;;;;;;0.30;0.30;;;;;;;;;;5059251;28;20275;-75
2024/04/06 10:12:48;;;;;;;0.30;0.30;;;;;;;;;;5057953;28;20517;-76
2024/04/06 10:15:21;;;;;;;0.57;0.57;;;;;;;;;;5061295;28;20592;-75
2024/04/06 10:17:52;;;;;;;0.40;0.40;;;;;;;;;;5060785;28;20882;-76
2024/04/06 10:20:22;;;;;;;0.40;0.40;;;;;;;;;;5061656;28;20234;-75
2024/04/06 10:23:00;;;;;;;0.40;0.40;;;;;;;;;;5050660;28;20235;-75
2024/04/06 10:25:36;;;;;;;0.30;0.30;;;;;;;;;;5057629;28;20667;-76
2024/04/06 10:28:03;;;;;;;0.32;0.32;;;;;;;;;;5040625;28;20268;-75
2024/04/06 10:30:29;;;;;;;0.75;0.75;;;;;;;;;;5061215;28;20219;-73
2024/04/06 10:32:55;;;;;;;1.10;1.10;;;;;;;;;;5043909;28;20238;-75
2024/04/06 10:35:21;;;;;;;0.85;0.60;;;;;;;;;;5069022;28;20654;-74
2024/04/06 10:37:51;;;;;;;0.50;0.50;;;;;;;;;;5079153;28;20719;-75
2024/04/06 10:40:22;;;;;;;0.50;0.50;;;;;;;;;;5059965;28;20300;-74
2024/04/06 10:42:49;;;;;;;0.50;0.50;;;;;;;;;;5059583;28;20230;-76
2024/04/06 10:45:16;;;;;;;0.85;0.80;;;;;;;;;;5059872;28;20223;-75
2024/04/06 10:47:48;;;;;;;0.60;0.60;;;;;;;;;;5075604;28;20228;-77
2024/04/06 10:50:14;;;;;;;0.60;0.60;;;;;;;;;;5060522;28;20249;-77
2024/04/06 10:52:42;;;;;;;0.40;0.40;;;;;;;;;;5058818;28;20222;-76
2024/04/06 10:55:15;;;;;;;0.55;0.55;;;;;;;;;;5067189;28;20636;-75
2024/04/06 10:57:41;;;;;;;0.30;0.30;;;;;;;;;;5059928;28;20230;-72
2024/04/06 11:00:15;;;;;;;0.60;0.55;;;;;;;;;;5053976;28;20223;-73
2024/04/06 11:02:42;;;;;;;0.38;0.38;;;;;;;;;;5047618;28;20223;-73
2024/04/06 11:05:09;;;;;;;0.60;0.60;;;;;;;;;;5056957;28;20231;-73
2024/04/06 11:07:35;;;;;;;0.40;0.40;;;;;;;;;;5058480;28;20218;-73
2024/04/06 11:10:01;;;;;;;0.57;0.57;;;;;;;;;;5057848;28;20712;-73
2024/04/06 11:12:30;;;;;;;0.85;0.77;;;;;;;;;;5042049;28;20234;-73
2024/04/06 11:15:00;;;;;;;0.40;0.40;;;;;;;;;;5058066;28;20233;-73
2024/04/06 11:17:27;;;;;;;0.50;0.50;;;;;;;;;;5055678;28;20591;-74
2024/04/06 11:19:56;;;;;;;0.50;0.50;;;;;;;;;;5059396;28;20711;-73
2024/04/06 11:22:22;;;;;;;0.40;0.40;;;;;;;;;;5056922;28;20223;-73
2024/04/06 11:24:48;;;;;;;4.68;0.75;;;;;;;;;;5059747;28;20218;-73
2024/04/06 11:27:21;;;;;;;0.30;0.30;;;;;;;;;;5055119;28;20223;-72
2024/04/06 11:29:49;;;;;;;0.40;0.40;;;;;;;;;;5046298;28;20707;-73
2024/04/06 11:35:10;;;;;;;0.40;0.40;;;;;;;;;;5065425;28;20223;-73
2024/04/06 11:37:35;;;;;;;0.70;0.63;;;;;;;;;;5040239;28;20269;-73
2024/04/06 11:40:01;;;;;;;0.82;0.82;;;;;;;;;;5041959;28;20246;-72
2024/04/06 11:42:27;;;;;;;0.43;0.43;;;;;;;;;;5054634;28;20231;-74
2024/04/06 11:44:53;;;;;;;0.70;0.70;;;;;;;;;;5043376;28;20234;-73
2024/04/06 11:47:18;;;;;;;0.43;0.43;;;;;;;;;;5057047;28;20690;-72
2024/04/06 11:49:44;;;;;;;0.32;0.32;;;;;;;;;;5040771;28;21325;-72
2024/04/06 11:52:11;;;;;;;0.30;0.30;;;;;;;;;;5055294;28;20281;-73
2024/04/06 11:54:37;;;;;;;0.30;0.30;;;;;;;;;;5047154;28;20215;-73
2024/04/06 11:57:03;;;;;;;0.50;0.50;;;;;;;;;;5056303;28;20762;-72
2024/04/06 11:59:28;;;;;;;0.30;0.30;;;;;;;;;;5042319;28;20715;-73
2024/04/06 12:01:54;;;;;;;0.38;0.38;;;;;;;;;;5040807;28;20259;-72
2024/04/06 12:04:21;;;;;;;0.68;0.68;;;;;;;;;;5048098;28;20331;-73
2024/04/06 12:06:46;;;;;;;0.35;0.35;;;;;;;;;;5040842;28;21199;-73
2024/04/06 12:09:13;;;;;;;0.63;0.63;;;;;;;;;;5055496;28;20215;-73
2024/04/06 12:11:38;;;;;;;0.30;0.30;;;;;;;;;;5056997;28;20665;-73
2024/04/06 12:14:04;;;;;;;0.50;0.50;;;;;;;;;;5041304;28;20230;-73
2024/04/06 12:16:29;;;;;;;1.23;0.75;;;;;;;;;;5047516;28;20222;-73
2024/04/06 12:18:55;;;;;;;0.32;0.32;;;;;;;;;;5057692;28;20233;-73
2024/04/06 12:21:22;;;;;;;0.40;0.40;;;;;;;;;;5057945;28;20231;-73
2024/04/06 12:23:48;;;;;;;0.57;0.57;;;;;;;;;;5048288;28;20229;-73
2024/04/06 12:26:14;;;;;;;0.70;0.70;;;;;;;;;;5039861;28;20223;-72
2024/04/06 12:28:40;;;;;;;0.65;0.65;;;;;;;;;;5059836;28;20225;-73
2024/04/06 12:31:07;;;;;;;0.60;0.60;;;;;;;;;;5057350;28;20541;-72
2024/04/06 12:33:32;;;;;;;0.88;0.88;;;;;;;;;;5041479;28;20238;-73
2024/04/06 12:35:59;;;;;;;0.43;0.43;;;;;;;;;;5056177;28;20219;-72
2024/04/06 12:38:25;;;;;;;0.30;0.30;;;;;;;;;;5040837;28;20219;-73
2024/04/06 12:40:50;;;;;;;0.45;0.45;;;;;;;;;;5040081;28;20238;-72
2024/04/06 12:43:15;;;;;;;0.75;0.75;;;;;;;;;;5056765;28;20219;-72
2024/04/06 12:45:41;;;;;;;0.85;0.73;;;;;;;;;;5056124;28;20218;-73
2024/04/06 12:48:07;;;;;;;0.40;0.40;;;;;;;;;;5057226;28;20225;-73
2024/04/06 12:50:33;;;;;;;0.80;0.80;;;;;;;;;;5057326;28;20227;-73
2024/04/06 12:52:59;;;;;;;0.77;0.77;;;;;;;;;;5049001;28;20227;-73
2024/04/06 12:55:24;;;;;;;0.60;0.60;;;;;;;;;;5055943;28;20262;-73
2024/04/06 12:57:52;;;;;;;1.95;1.10;;;;;;;;;;5053741;28;20230;-75
2024/04/06 13:00:18;;;;;;;0.40;0.40;;;;;;;;;;5060933;28;20219;-75
2024/04/06 13:02:44;;;;;;;0.38;0.38;;;;;;;;;;5037520;28;20218;-74
2024/04/06 13:05:10;;;;;;;0.40;0.40;;;;;;;;;;5038592;28;20692;-75
2024/04/06 13:07:39;;;;;;;0.40;0.40;;;;;;;;;;5055812;28;20272;-75
2024/04/06 13:10:06;;;;;;;0.55;0.55;;;;;;;;;;5056074;28;20635;-74
2024/04/06 13:12:34;;;;;;;1.25;1.13;;;;;;;;;;5055008;28;20230;-75
2024/04/06 13:15:01;;;;;;;0.50;0.50;;;;;;;;;;5055805;28;20279;-75
2024/04/06 13:17:27;;;;;;;0.57;0.40;;;;;;;;;;5053874;28;20227;-75
2024/04/06 13:19:54;;;;;;;0.50;0.50;;;;;;;;;;5055192;28;20229;-75
2024/04/06 13:22:20;;;;;;;0.68;0.68;;;;;;;;;;5060897;28;20231;-74
2024/04/06 13:24:46;;;;;;;1.90;1.13;;;;;;;;;;5057095;28;20341;-75
2024/04/06 13:27:11;;;;;;;0.60;0.60;;;;;;;;;;5052623;28;20235;-75
2024/04/06 13:29:38;;;;;;;0.50;0.50;;;;;;;;;;5047734;28;20235;-75
2024/04/06 13:32:04;;;;;;;0.57;0.57;;;;;;;;;;5039537;28;20285;-75
2024/04/06 13:34:35;;;;;;;0.45;0.45;;;;;;;;;;5056119;28;20223;-75
2024/04/06 13:37:01;;;;;;;0.88;0.88;;;;;;;;;;5056710;28;20266;-76
2024/04/06 13:39:26;;;;;;;0.57;0.57;;;;;;;;;;5054928;28;20713;-75
2024/04/06 13:41:52;;;;;;;1.85;1.27;;;;;;;;;;5035696;28;20266;-75
2024/04/06 13:44:17;;;;;;;0.55;0.55;;;;;;;;;;5053202;28;20233;-74
2024/04/06 13:46:43;;;;;;;0.50;0.50;;;;;;;;;;5057342;28;20249;-75
2024/04/06 13:49:09;;;;;;;0.50;0.50;;;;;;;;;;5049857;28;20728;-75
2024/04/06 13:51:38;;;;;;;0.50;0.50;;;;;;;;;;5041634;28;20357;-75
2024/04/06 13:54:05;;;;;;;0.50;0.50;;;;;;;;;;5056261;28;20273;-75
2024/04/06 13:56:34;;;;;;;0.52;0.52;;;;;;;;;;5057468;28;20234;-75
2024/04/06 13:59:00;;;;;;;0.43;0.43;;;;;;;;;;5050512;28;20227;-75
2024/04/06 14:01:26;;;;;;;0.88;0.85;;;;;;;;;;5049794;28;20735;-75
2024/04/06 14:03:51;;;;;;;0.50;0.50;;;;;;;;;;5041706;28;20226;-75
2024/04/06 14:06:17;;;;;;;0.50;0.50;;;;;;;;;;5059261;28;20261;-75
2024/04/06 14:08:43;;;;;;;0.77;0.77;;;;;;;;;;5059508;28;20811;-75
2024/04/06 14:11:11;;;;;;;0.47;0.47;;;;;;;;;;5059370;28;20243;-75
2024/04/06 14:13:39;;;;;;;0.80;0.80;;;;;;;;;;5059266;28;20231;-75
2024/04/06 14:16:06;;;;;;;0.40;0.40;;;;;;;;;;5059529;28;20234;-75
2024/04/06 14:18:32;;;;;;;0.75;0.70;;;;;;;;;;5042812;28;20234;-76
2024/04/06 14:20:57;;;;;;;0.60;0.60;;;;;;;;;;5048248;28;20318;-75
2024/04/06 14:23:23;;;;;;;0.90;0.90;;;;;;;;;;5057609;28;20231;-75
2024/04/06 14:25:48;;;;;;;0.40;0.40;;;;;;;;;;5059071;28;20269;-75
2024/04/06 14:28:14;;;;;;;0.60;0.60;;;;;;;;;;5057056;28;20251;-75
2024/04/06 14:30:39;;;;;;;0.77;0.77;;;;;;;;;;5057436;28;20310;-75
2024/04/06 14:33:05;;;;;;;0.50;0.50;;;;;;;;;;5042723;28;20238;-75
2024/04/06 14:35:30;;;;;;;0.40;0.40;;;;;;;;;;5058140;28;20599;-75
2024/04/06 14:37:56;;;;;;;0.45;0.45;;;;;;;;;;5051363;28;20219;-75
2024/04/06 14:40:23;;;;;;;0.60;0.60;;;;;;;;;;5042432;28;20230;-75
2024/04/06 14:42:49;;;;;;;0.52;0.52;;;;;;;;;;5038083;28;20714;-75